Sedalia, Colorado
Current Conditions -  °F | °C
As of 10:53 AM on Thursday 29 Jan 2015 (Local Time) from KAPA Reporting Station
Overcast Overcast  
Wind Chill: 33°   Ceiling: 3800
Heat Index: 37°   Visibility: 10mi
Dew Point: 26°   Wind: 5mph
Humidity: 65%   Direction: 120°ESE
Pressure: 30.51"   Gusts: NA
Location:  39.44°N, 104.96°W
Report Text: KAPA 291753Z 12004KT 10SM FEW007 BKN038 OVC044 03/M03 A3051 RMK AO2 SLP354 T00281033 10028 20017 51007
Loading
Personal Weather Stations






























Interactive Weather Map New forecast layout! Learn more

10-Day Weather Forecast

Advertisements
Track Severe Weather on mobile